Terminal Aerodrome Forecast
Issued by NWS Shreveport, LA

Home | Current Version | Previous Version | Text Only | Print | Product List | Glossary On
Versions: 1 2 3 4 5 6 7 8 9 10 11 12 13 14 15
000
FTUS44 KSHV 061605 AAA
TAFGGG
TAF AMD
KGGG 061605Z 0616/0712 14013KT P6SM BKN020
      TEMPO 0619/0621 SCT025 BKN040
     FM062200 16012KT P6SM VCTS SCT025 BKN035CB OVC050
      TEMPO 0622/0624 5SM -TSRA BR BKN015 OVC030CB
     FM070100 16013KT 6SM -TSRA BKN025CB OVC040
     FM070200 15009KT P6SM VCTS SCT030CB BKN045
     FM070300 14006KT P6SM SCT035 BKN045
     FM070700 16007KT P6SM OVC015=

USA.gov is the U.S. government's official web portal to all federal, state and local government web resources and services.